sensor_id;sensor_type;location;lat;lon;timestamp;P1;durP1;ratioP1;P2;durP2;ratioP2
25567;SDS011;13455;51.480;7.594;2024-03-23T00:52:43;23.63;;;4.60;;
25567;SDS011;13455;51.480;7.594;2024-03-23T00:55:10;20.57;;;5.23;;
25567;SDS011;13455;51.480;7.594;2024-03-23T00:57:36;26.05;;;5.20;;
25567;SDS011;13455;51.480;7.594;2024-03-23T01:00:03;21.90;;;4.82;;
25567;SDS011;13455;51.480;7.594;2024-03-23T01:02:31;22.20;;;4.75;;
25567;SDS011;13455;51.480;7.594;2024-03-23T01:04:57;20.87;;;5.30;;
25567;SDS011;13455;51.480;7.594;2024-03-23T01:07:22;23.17;;;5.30;;
25567;SDS011;13455;51.480;7.594;2024-03-23T01:09:48;23.53;;;5.40;;
25567;SDS011;13455;51.480;7.594;2024-03-23T01:12:14;21.50;;;5.60;;
25567;SDS011;13455;51.480;7.594;2024-03-23T01:14:39;21.57;;;5.73;;
25567;SDS011;13455;51.480;7.594;2024-03-23T01:17:05;19.90;;;5.33;;
25567;SDS011;13455;51.480;7.594;2024-03-23T01:19:31;22.10;;;5.40;;
25567;SDS011;13455;51.480;7.594;2024-03-23T01:21:56;20.83;;;5.47;;
25567;SDS011;13455;51.480;7.594;2024-03-23T01:24:22;17.27;;;5.43;;
25567;SDS011;13455;51.480;7.594;2024-03-23T01:26:48;17.43;;;5.17;;
25567;SDS011;13455;51.480;7.594;2024-03-23T01:29:13;22.67;;;5.13;;
25567;SDS011;13455;51.480;7.594;2024-03-23T01:31:39;14.93;;;4.45;;
25567;SDS011;13455;51.480;7.594;2024-03-23T01:34:05;16.88;;;5.07;;
25567;SDS011;13455;51.480;7.594;2024-03-23T01:36:31;13.05;;;4.00;;
25567;SDS011;13455;51.480;7.594;2024-03-23T01:38:57;16.15;;;4.22;;
25567;SDS011;13455;51.480;7.594;2024-03-23T01:41:23;14.65;;;3.88;;
25567;SDS011;13455;51.480;7.594;2024-03-23T01:43:50;17.60;;;4.17;;
25567;SDS011;13455;51.480;7.594;2024-03-23T01:46:16;14.43;;;3.93;;
25567;SDS011;13455;51.480;7.594;2024-03-23T01:48:42;17.27;;;3.75;;
25567;SDS011;13455;51.480;7.594;2024-03-23T01:51:08;15.47;;;3.57;;
25567;SDS011;13455;51.480;7.594;2024-03-23T01:53:34;15.95;;;3.45;;
25567;SDS011;13455;51.480;7.594;2024-03-23T01:55:59;16.25;;;4.03;;
25567;SDS011;13455;51.480;7.594;2024-03-23T01:58:27;13.10;;;3.63;;
25567;SDS011;13455;51.480;7.594;2024-03-23T02:00:53;14.35;;;3.83;;
25567;SDS011;13455;51.480;7.594;2024-03-23T02:03:22;16.73;;;4.07;;
25567;SDS011;13455;51.480;7.594;2024-03-23T02:05:49;21.40;;;3.85;;
25567;SDS011;13455;51.480;7.594;2024-03-23T02:08:17;16.05;;;3.92;;
25567;SDS011;13455;51.480;7.594;2024-03-23T02:10:43;13.32;;;3.85;;
25567;SDS011;13455;51.480;7.594;2024-03-23T02:13:08;18.98;;;4.18;;
25567;SDS011;13455;51.480;7.594;2024-03-23T02:15:34;14.63;;;3.97;;
25567;SDS011;13455;51.480;7.594;2024-03-23T02:18:00;14.27;;;3.60;;
25567;SDS011;13455;51.480;7.594;2024-03-23T02:20:25;11.07;;;2.80;;
25567;SDS011;13455;51.480;7.594;2024-03-23T02:22:52;12.10;;;2.80;;
25567;SDS011;13455;51.480;7.594;2024-03-23T02:25:18;7.95;;;2.17;;
25567;SDS011;13455;51.480;7.594;2024-03-23T02:27:44;8.88;;;1.83;;
25567;SDS011;13455;51.480;7.594;2024-03-23T02:30:09;11.38;;;2.22;;
25567;SDS011;13455;51.480;7.594;2024-03-23T02:32:35;11.45;;;2.28;;
25567;SDS011;13455;51.480;7.594;2024-03-23T02:35:01;10.05;;;2.38;;
25567;SDS011;13455;51.480;7.594;2024-03-23T02:37:27;10.40;;;2.08;;
25567;SDS011;13455;51.480;7.594;2024-03-23T02:39:52;8.75;;;2.10;;
25567;SDS011;13455;51.480;7.594;2024-03-23T02:42:18;8.75;;;2.10;;
25567;SDS011;13455;51.480;7.594;2024-03-23T02:44:46;8.95;;;2.00;;
25567;SDS011;13455;51.480;7.594;2024-03-23T02:47:12;9.70;;;2.20;;
25567;SDS011;13455;51.480;7.594;2024-03-23T02:49:38;8.77;;;2.03;;
25567;SDS011;13455;51.480;7.594;2024-03-23T02:52:03;9.37;;;2.17;;
25567;SDS011;13455;51.480;7.594;2024-03-23T02:54:29;8.88;;;1.92;;
25567;SDS011;13455;51.480;7.594;2024-03-23T02:56:55;9.57;;;2.10;;
25567;SDS011;13455;51.480;7.594;2024-03-23T02:59:21;10.73;;;2.33;;
25567;SDS011;13455;51.480;7.594;2024-03-23T03:01:46;10.85;;;2.40;;
25567;SDS011;13455;51.480;7.594;2024-03-23T03:04:12;9.63;;;2.78;;
25567;SDS011;13455;51.480;7.594;2024-03-23T03:06:37;10.10;;;2.20;;
25567;SDS011;13455;51.480;7.594;2024-03-23T03:09:03;8.00;;;2.20;;
25567;SDS011;13455;51.480;7.594;2024-03-23T03:11:29;10.63;;;2.50;;
25567;SDS011;13455;51.480;7.594;2024-03-23T03:13:55;9.80;;;2.37;;
25567;SDS011;13455;51.480;7.594;2024-03-23T03:16:21;10.47;;;2.50;;
25567;SDS011;13455;51.480;7.594;2024-03-23T03:18:46;10.27;;;2.13;;
25567;SDS011;13455;51.480;7.594;2024-03-23T03:21:12;10.37;;;2.10;;
25567;SDS011;13455;51.480;7.594;2024-03-23T03:23:38;7.70;;;1.70;;
25567;SDS011;13455;51.480;7.594;2024-03-23T03:26:05;9.20;;;2.20;;
25567;SDS011;13455;51.480;7.594;2024-03-23T03:28:31;9.23;;;2.63;;
25567;SDS011;13455;51.480;7.594;2024-03-23T03:30:58;8.75;;;2.00;;
25567;SDS011;13455;51.480;7.594;2024-03-23T03:33:24;6.57;;;1.80;;
25567;SDS011;13455;51.480;7.594;2024-03-23T03:35:50;7.50;;;2.07;;
25567;SDS011;13455;51.480;7.594;2024-03-23T03:38:17;9.97;;;2.10;;
25567;SDS011;13455;51.480;7.594;2024-03-23T03:40:43;8.32;;;2.00;;
25567;SDS011;13455;51.480;7.594;2024-03-23T03:43:09;9.07;;;1.90;;
25567;SDS011;13455;51.480;7.594;2024-03-23T03:45:34;8.30;;;1.67;;
25567;SDS011;13455;51.480;7.594;2024-03-23T03:48:00;7.80;;;1.88;;
25567;SDS011;13455;51.480;7.594;2024-03-23T03:50:26;8.95;;;2.25;;
25567;SDS011;13455;51.480;7.594;2024-03-23T03:52:51;7.10;;;2.10;;
25567;SDS011;13455;51.480;7.594;2024-03-23T03:55:17;9.30;;;2.25;;
25567;SDS011;13455;51.480;7.594;2024-03-23T03:57:43;9.13;;;2.00;;
25567;SDS011;13455;51.480;7.594;2024-03-23T04:00:08;7.57;;;2.00;;
25567;SDS011;13455;51.480;7.594;2024-03-23T04:02:36;8.68;;;1.80;;
25567;SDS011;13455;51.480;7.594;2024-03-23T04:05:02;11.90;;;2.50;;
25567;SDS011;13455;51.480;7.594;2024-03-23T04:07:28;11.43;;;2.10;;
25567;SDS011;13455;51.480;7.594;2024-03-23T04:09:54;9.98;;;2.28;;
25567;SDS011;13455;51.480;7.594;2024-03-23T04:12:19;8.73;;;2.45;;
25567;SDS011;13455;51.480;7.594;2024-03-23T04:14:45;11.65;;;2.03;;
25567;SDS011;13455;51.480;7.594;2024-03-23T04:17:11;11.97;;;2.33;;
25567;SDS011;13455;51.480;7.594;2024-03-23T04:19:37;9.23;;;1.97;;
25567;SDS011;13455;51.480;7.594;2024-03-23T04:22:02;10.20;;;2.30;;
25567;SDS011;13455;51.480;7.594;2024-03-23T04:24:28;11.38;;;2.25;;
25567;SDS011;13455;51.480;7.594;2024-03-23T04:26:54;10.57;;;2.30;;
25567;SDS011;13455;51.480;7.594;2024-03-23T04:29:21;12.95;;;2.55;;
25567;SDS011;13455;51.480;7.594;2024-03-23T04:31:47;8.05;;;2.00;;
25567;SDS011;13455;51.480;7.594;2024-03-23T04:34:13;13.32;;;2.60;;
25567;SDS011;13455;51.480;7.594;2024-03-23T04:36:39;11.68;;;2.45;;
25567;SDS011;13455;51.480;7.594;2024-03-23T04:39:05;11.47;;;2.50;;
25567;SDS011;13455;51.480;7.594;2024-03-23T04:41:33;14.50;;;3.40;;
25567;SDS011;13455;51.480;7.594;2024-03-23T04:43:59;14.05;;;3.03;;
25567;SDS011;13455;51.480;7.594;2024-03-23T04:46:25;14.80;;;3.00;;
25567;SDS011;13455;51.480;7.594;2024-03-23T04:48:51;11.10;;;2.80;;
25567;SDS011;13455;51.480;7.594;2024-03-23T04:51:20;12.32;;;2.80;;
25567;SDS011;13455;51.480;7.594;2024-03-23T04:53:46;15.20;;;3.00;;
25567;SDS011;13455;51.480;7.594;2024-03-23T04:56:13;11.48;;;2.85;;
25567;SDS011;13455;51.480;7.594;2024-03-23T04:58:39;11.93;;;2.70;;
25567;SDS011;13455;51.480;7.594;2024-03-23T05:01:05;11.35;;;2.70;;
25567;SDS011;13455;51.480;7.594;2024-03-23T05:03:31;10.85;;;2.50;;
25567;SDS011;13455;51.480;7.594;2024-03-23T05:05:56;11.02;;;2.53;;
25567;SDS011;13455;51.480;7.594;2024-03-23T05:08:23;12.65;;;2.80;;
25567;SDS011;13455;51.480;7.594;2024-03-23T05:10:49;14.25;;;2.92;;
25567;SDS011;13455;51.480;7.594;2024-03-23T05:13:14;14.50;;;3.20;;
25567;SDS011;13455;51.480;7.594;2024-03-23T05:15:40;14.38;;;2.95;;
25567;SDS011;13455;51.480;7.594;2024-03-23T05:18:06;14.20;;;3.30;;
25567;SDS011;13455;51.480;7.594;2024-03-23T05:20:32;14.27;;;2.70;;
25567;SDS011;13455;51.480;7.594;2024-03-23T05:22:58;13.47;;;3.07;;
25567;SDS011;13455;51.480;7.594;2024-03-23T05:25:23;13.93;;;3.00;;
25567;SDS011;13455;51.480;7.594;2024-03-23T05:27:49;13.85;;;3.00;;
25567;SDS011;13455;51.480;7.594;2024-03-23T05:30:15;14.30;;;3.30;;
25567;SDS011;13455;51.480;7.594;2024-03-23T05:32:41;19.60;;;5.43;;
25567;SDS011;13455;51.480;7.594;2024-03-23T05:35:07;19.73;;;5.60;;
25567;SDS011;13455;51.480;7.594;2024-03-23T05:37:34;17.95;;;4.47;;
25567;SDS011;13455;51.480;7.594;2024-03-23T05:40:00;14.77;;;3.53;;
25567;SDS011;13455;51.480;7.594;2024-03-23T05:42:26;15.63;;;3.50;;
25567;SDS011;13455;51.480;7.594;2024-03-23T05:44:52;14.93;;;3.93;;
25567;SDS011;13455;51.480;7.594;2024-03-23T05:47:17;15.23;;;4.50;;
25567;SDS011;13455;51.480;7.594;2024-03-23T05:49:43;17.40;;;3.90;;
25567;SDS011;13455;51.480;7.594;2024-03-23T05:52:11;15.55;;;3.55;;
25567;SDS011;13455;51.480;7.594;2024-03-23T05:54:37;18.95;;;3.58;;
25567;SDS011;13455;51.480;7.594;2024-03-23T05:57:03;13.55;;;3.95;;
25567;SDS011;13455;51.480;7.594;2024-03-23T05:59:29;15.10;;;3.83;;
25567;SDS011;13455;51.480;7.594;2024-03-23T06:01:54;15.75;;;3.83;;
25567;SDS011;13455;51.480;7.594;2024-03-23T06:04:20;16.65;;;4.65;;
25567;SDS011;13455;51.480;7.594;2024-03-23T06:06:48;21.47;;;5.27;;
25567;SDS011;13455;51.480;7.594;2024-03-23T06:09:15;17.48;;;5.47;;
25567;SDS011;13455;51.480;7.594;2024-03-23T06:11:40;18.00;;;5.57;;
25567;SDS011;13455;51.480;7.594;2024-03-23T06:14:06;17.40;;;5.82;;
25567;SDS011;13455;51.480;7.594;2024-03-23T06:16:32;17.25;;;6.60;;
25567;SDS011;13455;51.480;7.594;2024-03-23T06:18:57;16.63;;;7.10;;
25567;SDS011;13455;51.480;7.594;2024-03-23T06:21:23;17.10;;;7.18;;
25567;SDS011;13455;51.480;7.594;2024-03-23T06:23:52;18.42;;;7.63;;
25567;SDS011;13455;51.480;7.594;2024-03-23T06:26:19;17.42;;;7.85;;
25567;SDS011;13455;51.480;7.594;2024-03-23T06:28:46;19.65;;;8.30;;
25567;SDS011;13455;51.480;7.594;2024-03-23T06:31:12;18.80;;;8.75;;
25567;SDS011;13455;51.480;7.594;2024-03-23T06:33:38;19.33;;;8.67;;
25567;SDS011;13455;51.480;7.594;2024-03-23T06:36:04;19.48;;;9.18;;
25567;SDS011;13455;51.480;7.594;2024-03-23T06:38:30;20.25;;;10.32;;
25567;SDS011;13455;51.480;7.594;2024-03-23T06:40:56;26.77;;;11.68;;
25567;SDS011;13455;51.480;7.594;2024-03-23T06:43:22;27.07;;;12.80;;
25567;SDS011;13455;51.480;7.594;2024-03-23T06:45:54;25.17;;;12.68;;
25567;SDS011;13455;51.480;7.594;2024-03-23T06:48:21;27.80;;;14.27;;
25567;SDS011;13455;51.480;7.594;2024-03-23T06:50:47;27.23;;;14.30;;
25567;SDS011;13455;51.480;7.594;2024-03-23T06:53:13;29.73;;;14.57;;
25567;SDS011;13455;51.480;7.594;2024-03-23T06:55:39;29.40;;;15.07;;
25567;SDS011;13455;51.480;7.594;2024-03-23T06:58:05;30.27;;;15.57;;
25567;SDS011;13455;51.480;7.594;2024-03-23T07:00:32;26.73;;;14.93;;
25567;SDS011;13455;51.480;7.594;2024-03-23T07:02:57;28.35;;;16.13;;
25567;SDS011;13455;51.480;7.594;2024-03-23T07:05:24;30.05;;;16.25;;
25567;SDS011;13455;51.480;7.594;2024-03-23T07:07:50;28.73;;;16.87;;
25567;SDS011;13455;51.480;7.594;2024-03-23T07:10:16;35.05;;;17.63;;
25567;SDS011;13455;51.480;7.594;2024-03-23T07:12:42;35.50;;;18.45;;
25567;SDS011;13455;51.480;7.594;2024-03-23T07:15:08;35.25;;;17.17;;
25567;SDS011;13455;51.480;7.594;2024-03-23T07:17:34;30.98;;;16.85;;
25567;SDS011;13455;51.480;7.594;2024-03-23T07:20:01;31.48;;;17.73;;
25567;SDS011;13455;51.480;7.594;2024-03-23T07:22:29;32.85;;;17.73;;
25567;SDS011;13455;51.480;7.594;2024-03-23T07:24:55;33.70;;;18.80;;
25567;SDS011;13455;51.480;7.594;2024-03-23T07:27:21;33.67;;;18.88;;
25567;SDS011;13455;51.480;7.594;2024-03-23T07:29:48;35.15;;;18.05;;
25567;SDS011;13455;51.480;7.594;2024-03-23T07:32:14;38.38;;;18.75;;
25567;SDS011;13455;51.480;7.594;2024-03-23T07:34:41;34.70;;;19.48;;
25567;SDS011;13455;51.480;7.594;2024-03-23T07:37:09;31.50;;;19.25;;
25567;SDS011;13455;51.480;7.594;2024-03-23T07:39:35;35.90;;;19.02;;
25567;SDS011;13455;51.480;7.594;2024-03-23T07:42:01;36.90;;;19.65;;
25567;SDS011;13455;51.480;7.594;2024-03-23T07:44:28;37.25;;;19.70;;
25567;SDS011;13455;51.480;7.594;2024-03-23T07:46:54;33.83;;;19.50;;
25567;SDS011;13455;51.480;7.594;2024-03-23T07:49:20;33.30;;;18.40;;
25567;SDS011;13455;51.480;7.594;2024-03-23T07:51:45;33.53;;;18.47;;
25567;SDS011;13455;51.480;7.594;2024-03-23T07:54:11;33.87;;;19.00;;
25567;SDS011;13455;51.480;7.594;2024-03-23T07:56:37;33.72;;;18.35;;
25567;SDS011;13455;51.480;7.594;2024-03-23T07:59:03;32.57;;;18.20;;
25567;SDS011;13455;51.480;7.594;2024-03-23T08:01:28;32.90;;;17.70;;
25567;SDS011;13455;51.480;7.594;2024-03-23T08:03:54;30.67;;;16.83;;
25567;SDS011;13455;51.480;7.594;2024-03-23T08:06:20;29.73;;;16.52;;
25567;SDS011;13455;51.480;7.594;2024-03-23T08:08:50;30.87;;;16.60;;
25567;SDS011;13455;51.480;7.594;2024-03-23T08:11:24;29.40;;;15.73;;
25567;SDS011;13455;51.480;7.594;2024-03-23T08:13:51;27.05;;;15.32;;
25567;SDS011;13455;51.480;7.594;2024-03-23T08:16:16;28.83;;;14.97;;
25567;SDS011;13455;51.480;7.594;2024-03-23T08:18:42;28.83;;;15.37;;
25567;SDS011;13455;51.480;7.594;2024-03-23T08:21:08;28.30;;;14.73;;
25567;SDS011;13455;51.480;7.594;2024-03-23T08:23:34;30.13;;;14.47;;
25567;SDS011;13455;51.480;7.594;2024-03-23T08:26:04;27.57;;;14.67;;
25567;SDS011;13455;51.480;7.594;2024-03-23T08:28:32;27.88;;;14.35;;
25567;SDS011;13455;51.480;7.594;2024-03-23T08:31:00;25.80;;;14.70;;
25567;SDS011;13455;51.480;7.594;2024-03-23T08:33:27;24.40;;;12.87;;
25567;SDS011;13455;51.480;7.594;2024-03-23T08:35:53;26.60;;;12.98;;
25567;SDS011;13455;51.480;7.594;2024-03-23T08:38:25;23.52;;;12.27;;
25567;SDS011;13455;51.480;7.594;2024-03-23T08:41:04;24.27;;;11.93;;
25567;SDS011;13455;51.480;7.594;2024-03-23T08:43:40;24.52;;;11.55;;
25567;SDS011;13455;51.480;7.594;2024-03-23T08:46:07;23.30;;;11.87;;
25567;SDS011;13455;51.480;7.594;2024-03-23T08:48:44;20.83;;;9.93;;
25567;SDS011;13455;51.480;7.594;2024-03-23T08:51:14;20.88;;;8.77;;
25567;SDS011;13455;51.480;7.594;2024-03-23T08:53:41;19.90;;;8.77;;
25567;SDS011;13455;51.480;7.594;2024-03-23T08:56:08;20.70;;;8.73;;
25567;SDS011;13455;51.480;7.594;2024-03-23T08:58:35;19.35;;;7.93;;
25567;SDS011;13455;51.480;7.594;2024-03-23T09:01:11;23.35;;;8.35;;
25567;SDS011;13455;51.480;7.594;2024-03-23T09:03:38;17.25;;;7.68;;
25567;SDS011;13455;51.480;7.594;2024-03-23T09:06:07;18.80;;;7.70;;
25567;SDS011;13455;51.480;7.594;2024-03-23T09:08:34;22.63;;;7.00;;
25567;SDS011;13455;51.480;7.594;2024-03-23T09:11:04;16.50;;;6.35;;
25567;SDS011;13455;51.480;7.594;2024-03-23T09:13:31;18.17;;;6.28;;
25567;SDS011;13455;51.480;7.594;2024-03-23T09:15:57;18.53;;;5.73;;
25567;SDS011;13455;51.480;7.594;2024-03-23T09:18:23;16.30;;;6.00;;
25567;SDS011;13455;51.480;7.594;2024-03-23T09:20:49;16.08;;;5.90;;
25567;SDS011;13455;51.480;7.594;2024-03-23T09:23:15;17.15;;;5.70;;
25567;SDS011;13455;51.480;7.594;2024-03-23T09:25:40;15.13;;;5.40;;
25567;SDS011;13455;51.480;7.594;2024-03-23T09:28:06;12.73;;;4.70;;
25567;SDS011;13455;51.480;7.594;2024-03-23T09:30:35;15.73;;;4.53;;
25567;SDS011;13455;51.480;7.594;2024-03-23T09:33:07;13.48;;;4.82;;
25567;SDS011;13455;51.480;7.594;2024-03-23T09:35:37;12.23;;;4.23;;
25567;SDS011;13455;51.480;7.594;2024-03-23T09:38:06;10.82;;;4.10;;
25567;SDS011;13455;51.480;7.594;2024-03-23T09:40:34;12.07;;;4.20;;
25567;SDS011;13455;51.480;7.594;2024-03-23T09:43:10;13.35;;;4.00;;
25567;SDS011;13455;51.480;7.594;2024-03-23T09:45:40;13.00;;;4.30;;
25567;SDS011;13455;51.480;7.594;2024-03-23T09:48:09;13.23;;;3.83;;
25567;SDS011;13455;51.480;7.594;2024-03-23T09:50:38;12.30;;;3.40;;
25567;SDS011;13455;51.480;7.594;2024-03-23T09:53:08;13.32;;;3.08;;
25567;SDS011;13455;51.480;7.594;2024-03-23T09:55:38;11.23;;;2.90;;
25567;SDS011;13455;51.480;7.594;2024-03-23T09:58:05;9.82;;;2.90;;
25567;SDS011;13455;51.480;7.594;2024-03-23T10:00:31;8.73;;;2.80;;
25567;SDS011;13455;51.480;7.594;2024-03-23T10:02:58;9.55;;;2.38;;
25567;SDS011;13455;51.480;7.594;2024-03-23T10:05:27;6.78;;;2.05;;
25567;SDS011;13455;51.480;7.594;2024-03-23T10:07:54;10.30;;;2.60;;
25567;SDS011;13455;51.480;7.594;2024-03-23T10:10:20;8.68;;;2.50;;
25567;SDS011;13455;51.480;7.594;2024-03-23T10:12:47;9.98;;;2.45;;
25567;SDS011;13455;51.480;7.594;2024-03-23T10:17:45;8.05;;;2.60;;
25567;SDS011;13455;51.480;7.594;2024-03-23T10:20:11;10.63;;;2.90;;
25567;SDS011;13455;51.480;7.594;2024-03-23T10:22:38;10.95;;;3.30;;
25567;SDS011;13455;51.480;7.594;2024-03-23T10:25:08;10.43;;;3.57;;
25567;SDS011;13455;51.480;7.594;2024-03-23T10:27:34;8.35;;;3.38;;
25567;SDS011;13455;51.480;7.594;2024-03-23T10:30:07;10.23;;;3.47;;
25567;SDS011;13455;51.480;7.594;2024-03-23T10:32:34;9.70;;;3.67;;
25567;SDS011;13455;51.480;7.594;2024-03-23T10:35:23;10.07;;;3.67;;
25567;SDS011;13455;51.480;7.594;2024-03-23T10:37:48;9.63;;;3.90;;
25567;SDS011;13455;51.480;7.594;2024-03-23T10:40:15;10.68;;;4.00;;
25567;SDS011;13455;51.480;7.594;2024-03-23T10:42:41;9.77;;;3.72;;
25567;SDS011;13455;51.480;7.594;2024-03-23T10:45:08;9.75;;;3.42;;
25567;SDS011;13455;51.480;7.594;2024-03-23T10:47:34;11.83;;;3.00;;
25567;SDS011;13455;51.480;7.594;2024-03-23T10:50:04;10.13;;;2.78;;
25567;SDS011;13455;51.480;7.594;2024-03-23T10:52:31;10.38;;;2.97;;
25567;SDS011;13455;51.480;7.594;2024-03-23T10:55:00;11.07;;;2.70;;
25567;SDS011;13455;51.480;7.594;2024-03-23T10:57:40;8.63;;;2.60;;
25567;SDS011;13455;51.480;7.594;2024-03-23T11:00:09;9.20;;;2.53;;
25567;SDS011;13455;51.480;7.594;2024-03-23T11:02:36;8.90;;;2.22;;
25567;SDS011;13455;51.480;7.594;2024-03-23T11:05:01;7.87;;;2.07;;
25567;SDS011;13455;51.480;7.594;2024-03-23T11:09:57;7.93;;;1.90;;
25567;SDS011;13455;51.480;7.594;2024-03-23T11:14:52;6.97;;;1.80;;
25567;SDS011;13455;51.480;7.594;2024-03-23T11:17:20;7.00;;;1.90;;
25567;SDS011;13455;51.480;7.594;2024-03-23T11:19:56;5.87;;;1.77;;
25567;SDS011;13455;51.480;7.594;2024-03-23T11:25:13;7.38;;;2.10;;
25567;SDS011;13455;51.480;7.594;2024-03-23T11:27:40;5.45;;;1.48;;
25567;SDS011;13455;51.480;7.594;2024-03-23T11:32:48;1.92;;;0.52;;
25567;SDS011;13455;51.480;7.594;2024-03-23T11:35:51;2.47;;;0.57;;
25567;SDS011;13455;51.480;7.594;2024-03-23T11:38:14;2.03;;;0.55;;
25567;SDS011;13455;51.480;7.594;2024-03-23T11:40:43;3.60;;;0.52;;
25567;SDS011;13455;51.480;7.594;2024-03-23T11:43:13;3.67;;;0.50;;
25567;SDS011;13455;51.480;7.594;2024-03-23T11:50:33;4.47;;;0.70;;
25567;SDS011;13455;51.480;7.594;2024-03-23T11:58:12;2.80;;;0.63;;
25567;SDS011;13455;51.480;7.594;2024-03-23T12:00:39;4.00;;;0.70;;
25567;SDS011;13455;51.480;7.594;2024-03-23T12:03:04;4.13;;;0.87;;
25567;SDS011;13455;51.480;7.594;2024-03-23T12:05:33;2.83;;;0.73;;
25567;SDS011;13455;51.480;7.594;2024-03-23T12:08:18;3.53;;;0.80;;
25567;SDS011;13455;51.480;7.594;2024-03-23T12:10:53;4.80;;;1.08;;
25567;SDS011;13455;51.480;7.594;2024-03-23T12:13:30;4.53;;;1.10;;
25567;SDS011;13455;51.480;7.594;2024-03-23T12:16:08;3.60;;;1.00;;
25567;SDS011;13455;51.480;7.594;2024-03-23T12:18:48;4.38;;;1.10;;
25567;SDS011;13455;51.480;7.594;2024-03-23T12:21:14;4.70;;;1.23;;
25567;SDS011;13455;51.480;7.594;2024-03-23T12:23:41;3.22;;;1.05;;
25567;SDS011;13455;51.480;7.594;2024-03-23T12:26:10;6.27;;;1.20;;
25567;SDS011;13455;51.480;7.594;2024-03-23T12:28:37;4.80;;;1.30;;
25567;SDS011;13455;51.480;7.594;2024-03-23T12:31:02;4.38;;;1.40;;
25567;SDS011;13455;51.480;7.594;2024-03-23T12:33:28;6.00;;;1.60;;
25567;SDS011;13455;51.480;7.594;2024-03-23T12:35:54;5.38;;;1.30;;
25567;SDS011;13455;51.480;7.594;2024-03-23T12:38:20;4.47;;;1.30;;
25567;SDS011;13455;51.480;7.594;2024-03-23T12:40:49;4.80;;;1.67;;
25567;SDS011;13455;51.480;7.594;2024-03-23T12:43:18;6.93;;;1.60;;
25567;SDS011;13455;51.480;7.594;2024-03-23T12:45:47;4.32;;;1.52;;
25567;SDS011;13455;51.480;7.594;2024-03-23T12:48:14;5.43;;;1.70;;
25567;SDS011;13455;51.480;7.594;2024-03-23T12:50:39;4.82;;;1.58;;
25567;SDS011;13455;51.480;7.594;2024-03-23T12:53:05;6.55;;;1.40;;
25567;SDS011;13455;51.480;7.594;2024-03-23T12:55:31;3.58;;;1.30;;
25567;SDS011;13455;51.480;7.594;2024-03-23T12:57:57;4.13;;;1.23;;
25567;SDS011;13455;51.480;7.594;2024-03-23T13:00:23;5.50;;;1.30;;
25567;SDS011;13455;51.480;7.594;2024-03-23T13:02:49;5.32;;;1.30;;
25567;SDS011;13455;51.480;7.594;2024-03-23T13:05:14;5.60;;;1.23;;
25567;SDS011;13455;51.480;7.594;2024-03-23T13:07:40;3.90;;;1.20;;
25567;SDS011;13455;51.480;7.594;2024-03-23T13:10:06;4.50;;;1.20;;
25567;SDS011;13455;51.480;7.594;2024-03-23T13:12:32;5.50;;;1.13;;
25567;SDS011;13455;51.480;7.594;2024-03-23T13:14:58;5.07;;;1.40;;
25567;SDS011;13455;51.480;7.594;2024-03-23T13:17:25;4.68;;;1.23;;
25567;SDS011;13455;51.480;7.594;2024-03-23T13:19:52;4.13;;;1.00;;
25567;SDS011;13455;51.480;7.594;2024-03-23T13:22:18;4.72;;;1.10;;
25567;SDS011;13455;51.480;7.594;2024-03-23T13:24:44;4.75;;;1.20;;
25567;SDS011;13455;51.480;7.594;2024-03-23T13:27:09;5.33;;;1.20;;
25567;SDS011;13455;51.480;7.594;2024-03-23T13:29:36;4.63;;;1.33;;
25567;SDS011;13455;51.480;7.594;2024-03-23T13:32:02;4.40;;;1.10;;
25567;SDS011;13455;51.480;7.594;2024-03-23T13:34:29;5.75;;;1.40;;
25567;SDS011;13455;51.480;7.594;2024-03-23T13:36:55;4.47;;;1.33;;
25567;SDS011;13455;51.480;7.594;2024-03-23T13:39:24;6.15;;;1.50;;
25567;SDS011;13455;51.480;7.594;2024-03-23T13:41:50;5.35;;;1.50;;
25567;SDS011;13455;51.480;7.594;2024-03-23T13:44:16;6.63;;;1.60;;
25567;SDS011;13455;51.480;7.594;2024-03-23T13:46:42;4.60;;;1.30;;
25567;SDS011;13455;51.480;7.594;2024-03-23T13:51:51;4.10;;;1.25;;
25567;SDS011;13455;51.480;7.594;2024-03-23T13:54:17;4.20;;;1.10;;
25567;SDS011;13455;51.480;7.594;2024-03-23T13:56:43;6.63;;;1.15;;
25567;SDS011;13455;51.480;7.594;2024-03-23T13:59:09;5.55;;;1.20;;
25567;SDS011;13455;51.480;7.594;2024-03-23T14:01:35;4.23;;;1.37;;
25567;SDS011;13455;51.480;7.594;2024-03-23T14:04:01;4.38;;;1.20;;
25567;SDS011;13455;51.480;7.594;2024-03-23T14:06:27;3.67;;;0.98;;
25567;SDS011;13455;51.480;7.594;2024-03-23T14:08:53;3.97;;;1.10;;
25567;SDS011;13455;51.480;7.594;2024-03-23T14:11:18;3.60;;;1.00;;
25567;SDS011;13455;51.480;7.594;2024-03-23T14:13:44;4.82;;;1.10;;
25567;SDS011;13455;51.480;7.594;2024-03-23T14:16:10;2.95;;;0.90;;
25567;SDS011;13455;51.480;7.594;2024-03-23T14:18:36;3.72;;;1.00;;
25567;SDS011;13455;51.480;7.594;2024-03-23T14:21:01;3.95;;;1.10;;
25567;SDS011;13455;51.480;7.594;2024-03-23T14:23:28;5.22;;;1.00;;
25567;SDS011;13455;51.480;7.594;2024-03-23T14:25:58;4.10;;;1.20;;
25567;SDS011;13455;51.480;7.594;2024-03-23T14:28:24;3.90;;;0.97;;
25567;SDS011;13455;51.480;7.594;2024-03-23T14:30:50;3.13;;;0.95;;
25567;SDS011;13455;51.480;7.594;2024-03-23T14:33:16;3.30;;;1.08;;
25567;SDS011;13455;51.480;7.594;2024-03-23T14:35:43;5.15;;;1.20;;
25567;SDS011;13455;51.480;7.594;2024-03-23T14:38:09;3.72;;;1.20;;
25567;SDS011;13455;51.480;7.594;2024-03-23T14:40:35;5.18;;;1.33;;
25567;SDS011;13455;51.480;7.594;2024-03-23T14:43:00;4.50;;;1.30;;
25567;SDS011;13455;51.480;7.594;2024-03-23T14:45:27;3.67;;;1.10;;
25567;SDS011;13455;51.480;7.594;2024-03-23T14:47:53;4.15;;;1.08;;
25567;SDS011;13455;51.480;7.594;2024-03-23T14:50:19;4.35;;;1.05;;
25567;SDS011;13455;51.480;7.594;2024-03-23T14:52:46;5.13;;;1.00;;
25567;SDS011;13455;51.480;7.594;2024-03-23T14:55:12;4.60;;;1.10;;
25567;SDS011;13455;51.480;7.594;2024-03-23T14:57:38;6.23;;;1.00;;
25567;SDS011;13455;51.480;7.594;2024-03-23T15:00:08;3.85;;;1.10;;
25567;SDS011;13455;51.480;7.594;2024-03-23T15:02:36;5.28;;;1.10;;
25567;SDS011;13455;51.480;7.594;2024-03-23T15:05:02;3.50;;;0.95;;
25567;SDS011;13455;51.480;7.594;2024-03-23T15:07:30;3.47;;;1.00;;
25567;SDS011;13455;51.480;7.594;2024-03-23T15:09:56;4.38;;;1.20;;
25567;SDS011;13455;51.480;7.594;2024-03-23T15:12:22;5.43;;;1.10;;
25567;SDS011;13455;51.480;7.594;2024-03-23T15:14:47;7.90;;;1.50;;
25567;SDS011;13455;51.480;7.594;2024-03-23T15:17:13;3.60;;;0.90;;
25567;SDS011;13455;51.480;7.594;2024-03-23T15:19:39;4.30;;;1.00;;
25567;SDS011;13455;51.480;7.594;2024-03-23T15:22:06;5.13;;;1.00;;
25567;SDS011;13455;51.480;7.594;2024-03-23T15:24:33;4.27;;;0.90;;
25567;SDS011;13455;51.480;7.594;2024-03-23T15:27:00;3.85;;;0.95;;
25567;SDS011;13455;51.480;7.594;2024-03-23T15:29:27;3.47;;;0.93;;
25567;SDS011;13455;51.480;7.594;2024-03-23T15:31:52;5.03;;;1.40;;
25567;SDS011;13455;51.480;7.594;2024-03-23T15:34:18;3.28;;;1.00;;
25567;SDS011;13455;51.480;7.594;2024-03-23T15:36:46;3.57;;;1.10;;
25567;SDS011;13455;51.480;7.594;2024-03-23T15:39:18;3.97;;;0.90;;
25567;SDS011;13455;51.480;7.594;2024-03-23T15:41:47;4.82;;;1.05;;
25567;SDS011;13455;51.480;7.594;2024-03-23T15:44:13;4.55;;;1.20;;
25567;SDS011;13455;51.480;7.594;2024-03-23T15:46:39;5.13;;;1.25;;
25567;SDS011;13455;51.480;7.594;2024-03-23T15:49:05;4.60;;;1.10;;
25567;SDS011;13455;51.480;7.594;2024-03-23T15:51:31;3.50;;;1.10;;
25567;SDS011;13455;51.480;7.594;2024-03-23T15:54:02;5.28;;;1.30;;